Flight Track Log - Related Links

Times and Time Zones

All times are in EDT time to prevent confusion due to time zone crossing. See the JTA1562 flight status page for this flight to view local times or setup timezone preferences in your user account.

Time Position Orientation Groundspeed Altitude Reporting Facility
EDT Latitude Longitude Course Direction KTS MPH feet Rate Location/Type
Wed 01:43:00 AM 25.1389 125.8766 56° Northeast  Level Estimated
Wed 01:44:00 AM 25.1980 125.9738 56° Northeast  Level Estimated
Wed 01:45:00 AM 25.2571 126.0711 56° Northeast  Level Estimated
Wed 01:46:00 AM 25.3161 126.1686 56° Northeast  Level Estimated
Wed 01:47:00 AM 25.3750 126.2661 56° Northeast  Level Estimated
Wed 01:48:00 AM 25.4339 126.3637 56° Northeast  Level Estimated
Wed 01:49:00 AM 25.4927 126.4614 56° Northeast  Level Estimated
Wed 01:50:00 AM 25.5515 126.5592 56° Northeast  Level Estimated
Wed 01:51:00 AM 25.6101 126.6571 56° Northeast  Level Estimated
Wed 01:52:00 AM 25.6687 126.7551 56° Northeast  Level Estimated
Wed 01:53:00 AM 25.7273 126.8532 56° Northeast  Level Estimated
Wed 01:54:00 AM 25.7858 126.9514 57° Northeast  Level Estimated
Wed 01:55:00 AM 25.8442 127.0497 57° Northeast  Level Estimated
Wed 01:56:00 AM 25.9025 127.1481 57° Northeast  Level Estimated
Wed 01:57:00 AM 25.9608 127.2466 57° Northeast  Level Estimated
Wed 01:58:00 AM 26.0190 127.3452 57° Northeast  Level Estimated
Wed 01:59:00 AM 26.0772 127.4438 57° Northeast  Level Estimated
Wed 02:00:00 AM 26.1352 127.5426 57° Northeast  Level Estimated
Wed 02:01:00 AM 26.1933 127.6415 57° Northeast  Level Estimated
Wed 02:02:00 AM 26.1958 127.6459 57° Northeast  Level Estimated
Wed 02:03:00 AM 26.1958 127.6459 347° North  Level Estimated
Wed 02:04:00 AM 26.1958 127.6459 347° North  Level Estimated
Wed 02:05:00 AM 26.1958 127.6459 347° North  Level Estimated
Wed 02:06:00 AM 26.1958 127.6459 347° North  Level Estimated
Wed 02:07:00 AM 26.1958 127.6459 347° North  Level Estimated
Wed 02:08:00 AM 26.1958 127.6459 347° North  Level Estimated
Wed 02:09:00 AM 26.1958 127.6459 347° North  Level Estimated
Wed 02:10:00 AM 26.1958 127.6459 347° North  Level Estimated
Wed 02:11:00 AM 26.1958 127.6459 347° North  Level Estimated
Wed 02:12:00 AM 26.1958 127.6459 347° North  Level Estimated
Wed 02:13:00 AM 26.1958 127.6459 347° North  Level Estimated
Wed 02:14:00 AM 26.1958 127.6459 347° North  Level Estimated
Wed 02:15:00 AM 26.1958 127.6459 347° North  Level Estimated

Login

Don't have an account? Register now (free) for customized features, flight alerts, and more!